Time;durP1;ratioP1;P1;durP2;ratioP2;P2;SDS_P1;SDS_P2;PMS_P1;PMS_P2;Temp;Humidity;BMP_temperature;BMP_pressure;BME280_temperature;BME280_humidity;BME280_pressure;Samples;Min_cycle;Max_cycle;Signal;HPM_P1;HPM_P2
2022/06/28 00:01:54;;;;;;;6.15;4.90;;;;;;;20.28;100.00;94743.63;5037230;28;20553;-63
2022/06/28 00:04:20;;;;;;;5.68;4.82;;;;;;;20.36;99.34;94758.97;5054825;28;20331;-63
2022/06/28 00:06:46;;;;;;;6.18;4.90;;;;;;;20.41;97.96;94761.78;5055149;28;20543;-59
2022/06/28 00:09:14;;;;;;;5.50;5.00;;;;;;;20.41;97.49;94772.13;5054902;28;20269;-62
2022/06/28 00:11:40;;;;;;;5.88;5.28;;;;;;;20.23;99.10;94756.28;5037005;28;20191;-64
2022/06/28 00:16:04;;;;;;;6.68;5.13;;;;;;;20.16;100.00;94748.44;5054941;28;20319;-63
2022/06/28 00:16:51;;;;;;;5.65;5.13;;;;;;;20.16;99.53;94756.19;5054840;28;20213;-63
2022/06/28 00:19:23;;;;;;;4.95;4.50;;;;;;;20.16;100.00;94745.84;5054623;28;20178;-62
2022/06/28 00:21:50;;;;;;;5.28;4.72;;;;;;;20.21;100.00;94753.09;5055168;28;20181;-62
2022/06/28 00:24:15;;;;;;;5.68;5.18;;;;;;;20.28;100.00;94756.53;5054574;28;20568;-62
2022/06/28 00:26:41;;;;;;;5.00;4.60;;;;;;;20.53;98.80;94768.03;5061735;22;20225;-63
2022/06/28 00:29:07;;;;;;;7.53;4.80;;;;;;;20.39;100.00;94753.44;5054923;28;20178;-59
2022/06/28 00:31:33;;;;;;;5.07;4.50;;;;;;;20.19;100.00;94742.09;5055145;28;20190;-59
2022/06/28 00:33:59;;;;;;;5.38;4.88;;;;;;;20.45;100.00;94756.06;5054067;28;20177;-62
2022/06/28 00:36:24;;;;;;;5.95;4.78;;;;;;;20.27;100.00;94744.59;5054807;28;20214;-62
2022/06/28 00:38:50;;;;;;;6.20;5.50;;;;;;;20.09;100.00;94737.28;5054599;28;20192;-63
2022/06/28 00:41:16;;;;;;;5.32;4.35;;;;;;;20.37;100.00;94758.78;5054804;28;20569;-63
2022/06/28 00:43:42;;;;;;;5.60;4.65;;;;;;;20.20;99.90;94767.00;5054251;28;20181;-63
2022/06/28 00:46:08;;;;;;;5.95;4.68;;;;;;;20.00;95.86;94801.13;5054329;28;20264;-62
2022/06/28 00:48:34;;;;;;;4.70;4.28;;;;;;;19.81;97.98;94773.34;5054264;28;20177;-59
2022/06/28 00:51:01;;;;;;;6.63;4.43;;;;;;;19.69;98.82;94755.94;5036423;28;20694;-62
2022/06/28 00:53:27;;;;;;;6.13;4.28;;;;;;;19.72;98.19;94763.28;5054107;28;20639;-62
2022/06/28 00:55:53;;;;;;;6.63;3.97;;;;;;;19.56;98.10;94769.47;5054433;28;20209;-62
2022/06/28 00:58:19;;;;;;;4.43;4.03;;;;;;;19.60;97.86;94768.16;5054199;28;20170;-59
2022/06/28 01:00:49;;;;;;;5.22;4.05;;;;;;;19.63;97.88;94778.09;5054236;28;20209;-61
2022/06/28 01:03:17;;;;;;;4.75;4.35;;;;;;;19.41;99.21;94749.88;5053952;28;20540;-63
2022/06/28 01:05:43;;;;;;;5.72;3.95;;;;;;;19.54;99.37;94745.66;5054049;28;20215;-62
2022/06/28 01:08:10;;;;;;;5.20;4.03;;;;;;;19.60;98.19;94762.97;5053746;28;20267;-59
2022/06/28 01:10:37;;;;;;;6.30;4.05;;;;;;;19.54;98.70;94762.91;5053889;28;20206;-62
2022/06/28 01:13:03;;;;;;;4.97;4.35;;;;;;;19.44;99.64;94752.06;5053781;28;20647;-63
2022/06/28 01:15:29;;;;;;;7.85;4.45;;;;;;;19.53;100.00;94749.22;5053885;28;20221;-62
2022/06/28 01:17:55;;;;;;;7.00;4.38;;;;;;;19.56;99.71;94761.75;5053805;28;20623;-62
2022/06/28 01:20:23;;;;;;;5.00;3.83;;;;;;;19.61;99.75;94751.69;5053810;28;20241;-62
2022/06/28 01:22:48;;;;;;;5.00;4.50;;;;;;;19.56;100.00;94751.44;5053775;28;20534;-60
2022/06/28 01:25:14;;;;;;;6.38;4.60;;;;;;;19.47;100.00;94731.09;5053516;28;20697;-62
2022/06/28 01:27:40;;;;;;;5.07;4.20;;;;;;;19.34;100.00;94736.91;5053741;28;20177;-62
2022/06/28 01:30:08;;;;;;;5.50;4.80;;;;;;;19.31;100.00;94734.63;5053506;28;20218;-59
2022/06/28 01:32:33;;;;;;;5.38;4.85;;;;;;;19.07;100.00;94733.16;5053311;28;20170;-62
2022/06/28 01:35:01;;;;;;;5.88;4.03;;;;;;;19.13;100.00;94745.34;5053123;28;20601;-64
2022/06/28 01:37:27;;;;;;;5.35;4.22;;;;;;;19.11;100.00;94739.56;5053315;28;20227;-62
2022/06/28 01:39:53;;;;;;;5.53;4.25;;;;;;;19.00;100.00;94739.22;5053228;28;20740;-62
2022/06/28 01:42:19;;;;;;;6.50;4.80;;;;;;;18.78;100.00;94722.09;5053158;28;20182;-59
2022/06/28 01:44:45;;;;;;;4.53;4.13;;;;;;;18.84;100.00;94727.34;5052810;28;20717;-62
2022/06/28 01:47:12;;;;;;;4.82;4.03;;;;;;;18.85;100.00;94738.41;5052697;28;20177;-60
2022/06/28 01:49:38;;;;;;;4.32;3.92;;;;;;;18.84;100.00;94734.25;5035550;28;20205;-62
2022/06/28 01:52:05;;;;;;;5.00;4.55;;;;;;;19.03;100.00;94741.44;5052918;28;20640;-61
2022/06/28 01:54:30;;;;;;;5.40;4.57;;;;;;;19.06;100.00;94743.66;5053026;28;20293;-63
2022/06/28 01:56:56;;;;;;;5.25;4.72;;;;;;;19.05;100.00;94737.69;5052889;28;20256;-62
2022/06/28 01:59:22;;;;;;;4.65;4.25;;;;;;;18.97;100.00;94722.34;5052650;28;20223;-61
2022/06/28 02:01:47;;;;;;;5.50;4.25;;;;;;;18.99;100.00;94732.47;5052833;28;20174;-59
2022/06/28 02:04:20;;;;;;;5.13;4.43;;;;;;;19.02;100.00;94737.28;5052726;28;20174;-62
2022/06/28 02:06:46;;;;;;;6.05;4.53;;;;;;;19.00;100.00;94729.72;5052999;28;20178;-61
2022/06/28 02:09:11;;;;;;;4.60;4.15;;;;;;;18.95;100.00;94728.63;5052715;28;20196;-62
2022/06/28 02:11:37;;;;;;;5.97;4.63;;;;;;;18.87;100.00;94728.72;5053080;28;20181;-63
2022/06/28 02:14:02;;;;;;;6.65;4.88;;;;;;;18.76;100.00;94726.63;5052584;28;20260;-62
2022/06/28 02:16:28;;;;;;;5.03;4.57;;;;;;;18.92;100.00;94726.44;5052879;28;20213;-63
2022/06/28 02:18:53;;;;;;;4.78;4.30;;;;;;;18.86;100.00;94738.25;5052579;28;20165;-61
2022/06/28 02:21:18;;;;;;;4.55;4.15;;;;;;;18.95;100.00;94734.59;5052802;28;20201;-62
2022/06/28 02:23:44;;;;;;;5.57;4.70;;;;;;;19.16;100.00;94741.59;5034547;28;20204;-58
2022/06/28 02:26:11;;;;;;;5.25;4.57;;;;;;;19.39;100.00;94751.84;5052792;28;20213;-59
2022/06/28 02:28:37;;;;;;;5.93;5.03;;;;;;;19.30;100.00;94756.25;5052555;28;20674;-62
2022/06/28 02:31:10;;;;;;;6.22;4.70;;;;;;;19.34;100.00;94757.53;5052230;28;20198;-62
2022/06/28 02:33:36;;;;;;;4.88;4.20;;;;;;;19.26;100.00;94753.25;5052429;28;20174;-61
2022/06/28 02:41:29;;;;;;;7.47;4.68;;;;;;;18.94;100.00;94745.09;5052091;28;20212;-62
2022/06/28 02:43:55;;;;;;;12.40;5.50;;;;;;;19.04;100.00;94759.31;5052042;28;20636;-58
2022/06/28 02:46:20;;;;;;;5.32;4.78;;;;;;;19.02;100.00;94760.47;5052424;28;20239;-61
2022/06/28 02:48:46;;;;;;;7.63;4.90;;;;;;;18.93;100.00;94756.38;5052087;28;20259;-59
2022/06/28 02:51:11;;;;;;;8.50;4.72;;;;;;;18.93;100.00;94756.38;5052584;28;20568;-62
2022/06/28 02:53:37;;;;;;;5.28;4.78;;;;;;;18.92;100.00;94763.31;5034112;28;20180;-61
2022/06/28 02:56:02;;;;;;;6.55;4.95;;;;;;;18.87;100.00;94760.44;5052261;28;20577;-62
2022/06/28 02:58:28;;;;;;;5.95;4.93;;;;;;;18.85;100.00;94751.28;5052035;28;20182;-62
2022/06/28 03:00:53;;;;;;;6.22;4.70;;;;;;;18.81;100.00;94744.91;5052273;28;20298;-63
2022/06/28 03:03:19;;;;;;;5.22;4.40;;;;;;;18.70;100.00;94758.22;5033884;28;20180;-62
2022/06/28 03:05:44;;;;;;;5.07;4.57;;;;;;;18.51;100.00;94731.22;5052220;28;20197;-58
2022/06/28 03:08:09;;;;;;;6.90;4.70;;;;;;;18.52;100.00;94742.31;5051909;28;20189;-60
2022/06/28 03:10:35;;;;;;;7.18;4.72;;;;;;;18.42;100.00;94729.69;5052022;28;20295;-62
2022/06/28 03:13:01;;;;;;;5.60;4.90;;;;;;;18.30;100.00;94731.06;5051743;28;20188;-61
2022/06/28 03:15:27;;;;;;;8.35;5.22;;;;;;;18.40;100.00;94732.41;5051469;28;20317;-62
2022/06/28 03:17:52;;;;;;;7.88;4.35;;;;;;;18.43;100.00;94744.16;5051832;28;20181;-61
2022/06/28 03:20:18;;;;;;;7.18;4.68;;;;;;;18.26;100.00;94735.75;5051898;28;20271;-62
2022/06/28 03:22:43;;;;;;;11.45;4.88;;;;;;;18.23;100.00;94730.97;5051756;28;20180;-59
2022/06/28 03:25:09;;;;;;;5.65;4.80;;;;;;;18.09;100.00;94728.34;5033606;28;20217;-61
2022/06/28 03:27:34;;;;;;;4.93;4.50;;;;;;;18.15;100.00;94723.31;5051581;28;20174;-62
2022/06/28 03:30:01;;;;;;;6.13;4.93;;;;;;;18.29;100.00;94729.47;5051405;28;20297;-63
2022/06/28 03:32:27;;;;;;;8.27;4.57;;;;;;;18.41;100.00;94731.44;5051489;28;20173;-62
2022/06/28 03:34:52;;;;;;;6.80;4.93;;;;;;;18.51;100.00;94731.22;5051375;28;20210;-62
2022/06/28 03:37:18;;;;;;;7.72;4.82;;;;;;;18.61;100.00;94728.38;5051510;28;20174;-59
2022/06/28 03:39:43;;;;;;;6.47;5.13;;;;;;;18.69;100.00;94733.44;5058347;22;20255;-63
2022/06/28 03:42:09;;;;;;;5.32;4.80;;;;;;;18.47;100.00;94731.72;5051711;28;20557;-64
2022/06/28 03:44:34;;;;;;;5.85;4.07;;;;;;;18.46;100.00;94732.72;5051224;28;20951;-59
2022/06/28 03:47:00;;;;;;;5.40;4.47;;;;;;;18.44;100.00;94736.25;5051529;28;20196;-62
2022/06/28 03:49:27;;;;;;;5.38;4.70;;;;;;;18.59;100.00;94750.94;5051204;28;20283;-63
2022/06/28 03:51:52;;;;;;;10.25;4.47;;;;;;;18.23;100.00;94740.44;5051341;28;20616;-62
2022/06/28 03:54:17;;;;;;;8.25;4.88;;;;;;;18.28;100.00;94749.25;5051035;28;20178;-62
2022/06/28 03:56:43;;;;;;;5.57;4.78;;;;;;;18.20;100.00;94757.03;5051176;28;20206;-59
2022/06/28 03:59:08;;;;;;;6.43;4.53;;;;;;;18.38;100.00;94752.38;5051179;28;20174;-59
2022/06/28 04:01:33;;;;;;;6.00;4.45;;;;;;;18.35;100.00;94760.47;5051835;28;20174;-62
2022/06/28 04:03:59;;;;;;;5.55;4.90;;;;;;;18.35;100.00;94760.47;5051233;28;20182;-61
2022/06/28 04:06:24;;;;;;;4.75;4.35;;;;;;;18.45;100.00;94765.38;5033490;28;20198;-63
2022/06/28 04:08:50;;;;;;;5.32;4.82;;;;;;;18.57;100.00;94760.59;5052172;28;20182;-59
2022/06/28 04:11:15;;;;;;;5.80;4.88;;;;;;;18.69;100.00;94770.31;5055410;28;20194;-62
2022/06/28 04:13:44;;;;;;;5.18;4.28;;;;;;;18.85;100.00;94771.91;5055017;28;20264;-64
2022/06/28 04:16:09;;;;;;;4.82;4.32;;;;;;;18.86;100.00;94779.47;5037108;28;20213;-62
2022/06/28 04:18:35;;;;;;;6.13;4.57;;;;;;;18.93;100.00;94784.69;5054624;28;20190;-62
2022/06/28 04:21:02;;;;;;;7.85;4.20;;;;;;;18.72;100.00;94772.53;5063276;22;20225;-63
2022/06/28 04:23:28;;;;;;;5.55;4.78;;;;;;;18.56;100.00;94771.88;5054637;28;20186;-59
2022/06/28 04:25:53;;;;;;;5.88;5.15;;;;;;;18.72;100.00;94784.63;5054696;28;20562;-62
2022/06/28 04:28:19;;;;;;;8.68;4.50;;;;;;;18.76;100.00;94783.28;5054494;28;20256;-61
2022/06/28 04:30:45;;;;;;;4.57;3.97;;;;;;;18.73;100.00;94786.19;5054409;28;20194;-63
2022/06/28 04:33:10;;;;;;;6.18;4.82;;;;;;;18.60;100.00;94779.09;5054358;28;20174;-65
2022/06/28 04:35:36;;;;;;;11.02;7.15;;;;;;;18.79;100.00;94788.88;5054774;28;20215;-63
2022/06/28 04:38:01;;;;;;;5.28;4.65;;;;;;;18.83;100.00;94789.31;5054326;28;20224;-61
2022/06/28 04:40:27;;;;;;;5.80;4.80;;;;;;;19.18;100.00;94793.78;5054788;28;20201;-62
2022/06/28 04:42:53;;;;;;;4.93;4.40;;;;;;;19.16;100.00;94780.28;5036255;28;20181;-63
2022/06/28 04:45:18;;;;;;;7.25;4.97;;;;;;;19.27;100.00;94787.53;5054555;28;20355;-62
2022/06/28 04:47:51;;;;;;;6.88;4.75;;;;;;;19.38;100.00;94794.84;5054265;28;20202;-63
2022/06/28 04:50:16;;;;;;;6.30;4.53;;;;;;;19.50;100.00;94793.41;5054632;28;20705;-63
2022/06/28 04:52:42;;;;;;;8.27;5.22;;;;;;;19.65;100.00;94783.88;5054039;28;20174;-63
2022/06/28 04:57:51;;;;;;;8.98;5.47;;;;;;;20.02;100.00;94812.06;5054037;28;20177;-63
2022/06/28 05:00:17;;;;;;;6.60;4.78;;;;;;;20.05;100.00;94816.06;5054369;28;20651;-63
2022/06/28 05:02:43;;;;;;;7.53;5.05;;;;;;;20.04;100.00;94812.66;5054108;28;20185;-63
2022/06/28 05:05:09;;;;;;;5.53;5.00;;;;;;;20.14;100.00;94827.06;5054103;28;20201;-62
2022/06/28 05:07:36;;;;;;;7.53;5.10;;;;;;;20.13;100.00;94818.53;5053758;28;20178;-60
2022/06/28 05:10:03;;;;;;;7.30;4.60;;;;;;;20.29;100.00;94827.84;5053719;28;20205;-63
2022/06/28 05:12:29;;;;;;;6.65;5.35;;;;;;;20.26;100.00;94817.88;5053615;28;20181;-61
2022/06/28 05:14:54;;;;;;;12.82;6.18;;;;;;;20.28;100.00;94800.44;5053941;28;20296;-59
2022/06/28 05:17:19;;;;;;;6.57;5.82;;;;;;;20.43;100.00;94822.59;5053652;28;20652;-62
2022/06/28 05:19:45;;;;;;;9.52;6.15;;;;;;;20.54;98.35;94852.31;5053316;28;20211;-62
2022/06/28 05:22:11;;;;;;;11.15;5.75;;;;;;;20.22;100.00;94806.34;5052862;28;20181;-61
2022/06/28 05:24:37;;;;;;;7.38;4.97;;;;;;;20.18;100.00;94795.53;5053724;28;20193;-63
2022/06/28 05:27:03;;;;;;;15.80;6.20;;;;;;;20.52;100.00;94802.63;5051713;28;20674;-62
2022/06/28 05:29:30;;;;;;;6.68;4.80;;;;;;;20.66;100.00;94819.81;5035378;28;20267;-63
2022/06/28 05:31:55;;;;;;;8.35;6.90;;;;;;;20.73;98.11;94834.38;5051969;28;20180;-62
2022/06/28 05:34:21;;;;;;;11.75;6.90;;;;;;;20.66;98.21;94825.78;5053430;28;20260;-62
2022/06/28 05:36:47;;;;;;;11.77;7.10;;;;;;;20.76;98.64;94820.28;5035100;28;20602;-63
2022/06/28 05:39:12;;;;;;;8.63;6.72;;;;;;;20.72;98.38;94825.06;5053174;28;20260;-63
2022/06/28 05:41:38;;;;;;;10.98;6.70;;;;;;;20.73;100.00;94766.38;5053246;28;20181;-63
2022/06/28 05:44:04;;;;;;;9.90;6.47;;;;;;;20.81;100.00;94776.59;5053060;28;20182;-64
2022/06/28 05:46:31;;;;;;;8.35;7.13;;;;;;;21.05;100.00;94777.97;5052996;28;20200;-60
2022/06/28 05:48:56;;;;;;;7.78;6.65;;;;;;;21.33;100.00;94787.25;5052924;28;20239;-60
2022/06/28 05:51:21;;;;;;;9.35;6.40;;;;;;;21.49;100.00;94786.91;5052760;28;20292;-64
2022/06/28 05:53:47;;;;;;;10.20;8.10;;;;;;;21.32;99.52;94845.16;5052634;28;20624;-60
2022/06/28 05:56:13;;;;;;;13.95;10.63;;;;;;;21.28;96.55;94869.00;5052379;28;20221;-61
2022/06/28 05:58:39;;;;;;;10.13;8.13;;;;;;;21.50;94.91;94871.31;5052830;28;20570;-61
2022/06/28 06:01:04;;;;;;;12.43;10.13;;;;;;;21.27;99.27;94829.41;5052572;28;20255;-63
2022/06/28 06:03:30;;;;;;;14.55;9.40;;;;;;;21.13;99.37;94835.47;5052486;28;20247;-63
2022/06/28 06:05:56;;;;;;;11.82;9.90;;;;;;;21.07;99.28;94825.91;5052591;28;20220;-60
2022/06/28 06:08:21;;;;;;;13.38;9.63;;;;;;;21.34;98.12;94853.53;5052386;28;20177;-61
2022/06/28 06:10:47;;;;;;;17.40;9.77;;;;;;;21.08;99.12;94839.63;5052149;28;20666;-60
2022/06/28 06:13:12;;;;;;;14.05;10.48;;;;;;;21.01;99.93;94821.44;5052323;28;20178;-59
2022/06/28 06:15:38;;;;;;;16.63;10.40;;;;;;;21.12;100.00;94817.56;5052193;28;20245;-64
2022/06/28 06:18:03;;;;;;;12.32;9.52;;;;;;;21.18;100.00;94822.78;5034508;28;20174;-64
2022/06/28 06:20:29;;;;;;;12.85;10.18;;;;;;;21.20;99.99;94818.22;5052062;28;20262;-63
2022/06/28 06:22:55;;;;;;;19.23;11.52;;;;;;;21.32;99.49;94824.47;5052316;28;20185;-60
2022/06/28 06:25:20;;;;;;;18.83;11.90;;;;;;;21.48;100.00;94813.78;5052535;28;20198;-63
2022/06/28 06:27:46;;;;;;;12.60;10.07;;;;;;;21.58;97.27;94842.69;5051859;28;20201;-64
2022/06/28 06:30:13;;;;;;;15.32;9.25;;;;;;;21.69;96.47;94841.38;5052194;28;20228;-64
2022/06/28 06:32:38;;;;;;;14.73;9.32;;;;;;;21.86;94.22;94862.53;5051708;28;20196;-63
2022/06/28 06:35:05;;;;;;;13.10;9.77;;;;;;;21.96;94.42;94847.47;5052063;28;20209;-63
2022/06/28 06:37:30;;;;;;;17.65;9.90;;;;;;;21.93;93.30;94850.44;5033949;28;20186;-62
2022/06/28 06:39:55;;;;;;;15.50;9.15;;;;;;;22.07;92.50;94854.66;5051610;28;20200;-64
2022/06/28 06:42:21;;;;;;;15.07;9.68;;;;;;;22.22;89.87;94881.22;5058459;22;20252;-64
2022/06/28 06:44:48;;;;;;;18.92;10.13;;;;;;;22.41;90.68;94864.91;5051901;28;20217;-64
2022/06/28 06:47:13;;;;;;;15.98;9.50;;;;;;;22.52;93.41;94828.06;5051489;28;20181;-60
2022/06/28 06:49:39;;;;;;;15.02;9.68;;;;;;;22.48;94.38;94806.13;5051402;28;20202;-60
2022/06/28 06:52:05;;;;;;;14.43;11.32;;;;;;;22.56;92.55;94839.63;5051532;28;20181;-61
2022/06/28 06:54:30;;;;;;;17.30;11.00;;;;;;;22.61;91.65;94842.44;5033644;28;20201;-58
2022/06/28 06:56:56;;;;;;;13.02;10.85;;;;;;;22.56;90.39;94850.00;5051367;28;20595;-62
2022/06/28 06:59:21;;;;;;;16.38;10.77;;;;;;;22.55;90.10;94846.59;5051236;28;20699;-59
2022/06/28 07:01:47;;;;;;;14.20;9.38;;;;;;;22.70;92.18;94809.34;5051397;28;20188;-62
2022/06/28 07:04:15;;;;;;;16.52;8.52;;;;;;;23.11;94.46;94787.34;5051297;28;20177;-59
2022/06/28 07:06:40;;;;;;;10.80;9.00;;;;;;;23.31;90.54;94837.41;5051364;28;20182;-61
2022/06/28 07:09:06;;;;;;;16.80;10.35;;;;;;;23.43;86.49;94886.13;5051379;28;20177;-62
2022/06/28 07:11:33;;;;;;;13.52;9.30;;;;;;;23.33;84.77;94891.72;5051994;28;20259;-63
2022/06/28 07:14:00;;;;;;;11.52;9.18;;;;;;;23.31;82.63;94911.88;5051230;28;20726;-63
2022/06/28 07:16:25;;;;;;;12.73;8.52;;;;;;;23.38;81.40;94924.84;5051832;28;20744;-60
2022/06/28 07:18:51;;;;;;;12.40;8.45;;;;;;;23.46;81.17;94906.47;5033341;28;20568;-59
2022/06/28 07:21:17;;;;;;;13.15;7.53;;;;;;;23.56;80.11;94923.22;5051226;28;20280;-60
2022/06/28 07:23:42;;;;;;;10.05;7.20;;;;;;;23.65;79.21;94934.19;5051523;28;20181;-60
2022/06/28 07:26:08;;;;;;;15.63;8.68;;;;;;;23.71;80.63;94897.84;5051625;28;20682;-60
2022/06/28 07:28:34;;;;;;;11.15;8.50;;;;;;;23.78;82.17;94877.81;5051063;28;20315;-59
2022/06/28 07:30:59;;;;;;;13.15;8.60;;;;;;;23.96;79.50;94919.53;5051083;28;20280;-60
2022/06/28 07:33:25;;;;;;;16.77;9.02;;;;;;;24.30;79.38;94923.59;5033967;28;20666;-59
2022/06/28 07:35:50;;;;;;;10.52;7.97;;;;;;;24.43;81.35;94881.97;5051505;28;20636;-60
2022/06/28 07:38:16;;;;;;;11.73;7.30;;;;;;;24.67;78.29;94929.81;5051456;28;20243;-59
2022/06/28 07:40:41;;;;;;;12.00;7.32;;;;;;;24.83;78.31;94924.94;5051498;28;20304;-63
2022/06/28 07:43:07;;;;;;;11.27;7.90;;;;;;;24.94;78.85;94920.88;5051186;28;20618;-63
2022/06/28 07:45:36;;;;;;;12.82;7.53;;;;;;;25.02;77.88;94938.81;5054544;28;20205;-63
2022/06/28 07:48:02;;;;;;;12.15;7.60;;;;;;;25.16;77.33;94945.53;5055032;28;20169;-63
2022/06/28 07:53:12;;;;;;;8.93;7.55;;;;;;;25.20;74.84;94974.53;5054945;28;20169;-62
2022/06/28 07:55:38;;;;;;;10.68;7.32;;;;;;;25.42;72.33;95020.03;5055010;28;20226;-64
2022/06/28 07:58:03;;;;;;;8.02;7.25;;;;;;;25.62;72.31;95005.06;5054764;28;20197;-64
2022/06/28 08:00:29;;;;;;;8.98;6.57;;;;;;;25.49;68.47;95070.28;5054702;28;20269;-63
2022/06/28 08:02:54;;;;;;;9.30;6.57;;;;;;;25.33;70.77;94996.03;5054700;28;20273;-63
2022/06/28 08:05:21;;;;;;;7.68;6.35;;;;;;;25.47;70.75;94983.75;5054957;28;20323;-63
2022/06/28 08:07:48;;;;;;;8.00;7.20;;;;;;;25.69;69.49;95003.97;5054545;28;20185;-63
2022/06/28 08:10:14;;;;;;;10.80;6.15;;;;;;;25.83;68.04;95015.09;5054785;28;20236;-64
2022/06/28 08:12:40;;;;;;;7.82;5.97;;;;;;;25.91;67.12;95024.44;5054691;28;20170;-63
2022/06/28 08:15:06;;;;;;;7.20;6.07;;;;;;;25.87;68.71;94977.19;5054640;28;20205;-66
2022/06/28 08:17:32;;;;;;;6.85;5.63;;;;;;;25.94;70.32;94943.25;5036576;28;20276;-63
2022/06/28 08:19:57;;;;;;;9.93;6.03;;;;;;;26.09;70.45;94934.06;5054439;28;20220;-63
2022/06/28 08:22:23;;;;;;;7.18;5.10;;;;;;;25.93;68.84;94978.94;5036515;28;20272;-64
2022/06/28 08:24:48;;;;;;;8.85;6.28;;;;;;;26.24;66.29;95023.13;5054333;28;20225;-64
2022/06/28 08:27:14;;;;;;;8.20;5.30;;;;;;;26.33;63.22;95079.22;5054393;28;20177;-65
2022/06/28 08:29:42;;;;;;;6.20;4.03;;;;;;;26.10;61.55;95094.66;5054242;28;20209;-63
2022/06/28 08:32:09;;;;;;;7.22;4.93;;;;;;;26.09;61.69;95074.03;5054280;28;20174;-62
2022/06/28 08:34:36;;;;;;;5.72;4.63;;;;;;;25.99;63.34;95024.16;5054359;28;20221;-59
2022/06/28 08:37:01;;;;;;;7.90;4.45;;;;;;;25.83;62.95;95033.34;5053932;28;20215;-59
2022/06/28 08:39:27;;;;;;;9.77;4.78;;;;;;;25.85;65.37;94974.00;5060849;22;20198;-60
2022/06/28 08:41:53;;;;;;;8.38;4.82;;;;;;;25.74;62.90;95032.00;5034026;28;20171;-61
2022/06/28 08:44:19;;;;;;;7.55;4.55;;;;;;;26.03;63.76;95005.28;5033744;28;20170;-60
2022/06/28 08:46:50;;;;;;;8.52;4.00;;;;;;;26.25;60.21;95087.31;5033874;28;20252;-61
2022/06/28 08:49:23;;;;;;;7.95;4.03;;;;;;;26.51;60.49;95070.59;5032806;28;20177;-61
2022/06/28 08:51:51;;;;;;;6.90;4.07;;;;;;;26.54;60.70;95044.09;5033786;28;20625;-61
2022/06/28 08:54:24;;;;;;;8.63;4.22;;;;;;;26.52;62.46;94986.88;5015571;28;20678;-63
2022/06/28 08:56:50;;;;;;;4.80;4.22;;;;;;;26.86;60.56;95039.50;5032173;28;20222;-64
2022/06/28 08:59:16;;;;;;;5.57;3.92;;;;;;;26.85;61.42;95014.41;5033716;28;20231;-63
2022/06/28 09:01:42;;;;;;;8.07;4.20;;;;;;;27.18;63.05;94976.41;5033763;28;20191;-63
2022/06/28 09:04:10;;;;;;;6.55;4.57;;;;;;;27.53;63.09;94986.94;5033661;28;20185;-64
2022/06/28 09:06:37;;;;;;;8.15;4.57;;;;;;;27.67;59.13;95066.69;5033885;28;20186;-63
2022/06/28 09:09:03;;;;;;;7.15;4.30;;;;;;;27.69;57.15;95116.94;5033414;28;20185;-63
2022/06/28 09:11:41;;;;;;;7.40;3.65;;;;;;;27.81;59.49;95047.19;5033756;28;20698;-64
2022/06/28 09:14:22;;;;;;;4.30;3.90;;;;;;;27.75;57.66;95074.22;5031718;28;20178;-63
2022/06/28 09:16:48;;;;;;;5.53;4.80;;;;;;;27.94;60.02;95015.56;5033083;28;20225;-64
2022/06/28 09:19:14;;;;;;;9.63;4.50;;;;;;;28.34;60.75;94993.97;5033123;28;20174;-63
2022/06/28 09:21:45;;;;;;;8.57;5.22;;;;;;;28.74;60.06;95016.53;5033651;28;20224;-62
2022/06/28 09:24:24;;;;;;;15.85;10.57;;;;;;;28.93;56.69;95114.00;5032981;28;20182;-66
2022/06/28 09:27:03;;;;;;;11.23;5.28;;;;;;;28.81;58.27;95043.34;5033412;28;20671;-63
2022/06/28 09:29:29;;;;;;;9.40;4.68;;;;;;;28.85;56.31;95096.03;5033054;28;20198;-64
2022/06/28 09:31:55;;;;;;;5.90;4.10;;;;;;;28.62;54.28;95124.88;5033006;28;20183;-62
2022/06/28 09:34:21;;;;;;;7.22;4.80;;;;;;;28.87;58.10;95026.72;5032903;28;20716;-63
2022/06/28 09:36:55;;;;;;;5.65;4.85;;;;;;;29.05;54.92;95105.09;5033194;28;20210;-63
2022/06/28 09:39:22;;;;;;;4.20;3.85;;;;;;;28.91;56.42;95068.91;5032846;28;20224;-63
2022/06/28 09:41:51;;;;;;;6.75;4.07;;;;;;;28.96;55.91;95082.94;5032772;28;20198;-63
2022/06/28 09:44:17;;;;;;;9.02;4.80;;;;;;;28.95;57.23;95022.91;5032873;28;20178;-61
2022/06/28 09:46:45;;;;;;;5.53;4.93;;;;;;;28.64;56.26;95049.56;5032593;28;20194;-60
2022/06/28 09:49:12;;;;;;;6.00;4.45;;;;;;;28.24;55.93;95041.59;5031342;28;20170;-63
2022/06/28 09:51:38;;;;;;;4.90;3.83;;;;;;;28.63;57.29;95012.09;5033189;28;20194;-63
2022/06/28 09:54:06;;;;;;;4.60;4.10;;;;;;;28.94;57.79;94995.16;5031198;28;20193;-61
2022/06/28 09:56:37;;;;;;;6.35;4.78;;;;;;;28.93;58.88;94964.75;5033038;28;20221;-63
2022/06/28 09:59:03;;;;;;;4.45;4.05;;;;;;;29.23;59.05;94975.00;5032492;28;20265;-63
2022/06/28 10:01:29;;;;;;;7.35;6.05;;;;;;;29.45;55.57;95062.38;5032858;28;20206;-63
2022/06/28 10:03:56;;;;;;;9.85;4.75;;;;;;;29.10;58.18;94991.78;5032445;28;20175;-63
2022/06/28 10:06:22;;;;;;;5.32;4.60;;;;;;;28.44;55.34;95041.25;5032030;28;20575;-63
2022/06/28 10:08:48;;;;;;;4.32;3.97;;;;;;;28.11;55.20;95044.47;5014556;28;20174;-63
2022/06/28 10:11:15;;;;;;;4.47;3.78;;;;;;;28.27;54.87;95062.09;5032636;28;20244;-64
2022/06/28 10:17:04;;;;;;;6.93;4.18;;;;;;;27.95;58.91;94946.63;5032089;28;20225;-63
2022/06/28 10:19:33;;;;;;;8.23;4.75;;;;;;;27.95;59.56;94932.72;5010938;28;20214;-62
2022/06/28 10:21:58;;;;;;;4.97;4.47;;;;;;;28.20;62.27;94873.88;5014506;28;20186;-62
2022/06/28 10:25:00;;;;;;;5.35;4.55;;;;;;;28.54;62.89;94868.75;5031981;28;20221;-63
2022/06/28 10:27:28;;;;;;;5.55;4.40;;;;;;;28.42;59.46;94939.47;5032036;28;20198;-63
2022/06/28 10:30:07;;;;;;;4.32;3.92;;;;;;;28.78;60.12;94912.94;5032268;28;20206;-60
2022/06/28 10:32:42;;;;;;;6.80;4.60;;;;;;;29.25;54.58;95083.75;5031992;28;20159;-59
2022/06/28 10:35:08;;;;;;;4.55;4.00;;;;;;;28.77;52.63;95109.47;5031695;28;20296;-61
2022/06/28 10:37:33;;;;;;;5.65;4.03;;;;;;;28.19;54.84;95039.69;5031838;28;20264;-61
2022/06/28 10:40:23;;;;;;;9.75;4.32;;;;;;;28.05;55.16;95012.19;5031687;28;20695;-61
2022/06/28 10:42:51;;;;;;;4.38;3.90;;;;;;;28.14;54.59;95029.13;5031906;28;20193;-64
2022/06/28 10:45:19;;;;;;;5.28;3.63;;;;;;;27.87;58.29;94931.25;5014466;28;20215;-64
2022/06/28 10:48:09;;;;;;;5.40;4.07;;;;;;;28.07;61.65;94852.47;5032310;28;20640;-63
2022/06/28 10:51:00;;;;;;;9.65;7.00;;;;;;;28.33;59.21;94913.88;5032133;28;20551;-63
2022/06/28 10:53:28;;;;;;;5.68;3.55;;;;;;;28.98;56.84;94968.28;5031652;28;20183;-62
2022/06/28 10:56:15;;;;;;;6.80;4.75;;;;;;;29.18;58.31;94941.66;5030229;28;20221;-62
2022/06/28 10:58:59;;;;;;;5.32;4.05;;;;;;;29.10;54.66;95027.63;5031562;28;20553;-63
2022/06/28 11:01:57;;;;;;;5.47;4.55;;;;;;;28.58;57.33;94932.72;5031620;28;20206;-63
2022/06/28 11:04:27;;;;;;;5.35;4.55;;;;;;;28.49;59.18;94897.44;5028871;28;20590;-64
2022/06/28 11:07:24;;;;;;;7.57;3.72;;;;;;;28.23;57.24;94936.22;5032232;28;20284;-63
2022/06/28 11:10:03;;;;;;;5.15;4.60;;;;;;;28.41;58.59;94898.59;5031785;28;20233;-60
2022/06/28 11:12:31;;;;;;;6.20;4.20;;;;;;;29.25;54.73;94996.50;5031499;28;20182;-60
2022/06/28 11:15:27;;;;;;;4.95;4.30;;;;;;;29.90;55.75;94986.28;5031430;28;20202;-60
2022/06/28 11:17:53;;;;;;;5.30;4.63;;;;;;;30.48;55.14;94995.22;5032419;28;20175;-60
2022/06/28 11:20:24;;;;;;;5.35;4.20;;;;;;;30.79;51.09;95092.72;5035914;28;20562;-60
2022/06/28 11:22:50;;;;;;;6.00;3.65;;;;;;;30.97;50.93;95085.38;5035724;28;20238;-60
2022/06/28 11:25:17;;;;;;;4.65;3.58;;;;;;;30.84;51.11;95075.25;5035652;28;20737;-60
2022/06/28 11:27:48;;;;;;;4.63;3.95;;;;;;;29.50;47.92;95139.25;5035578;28;20185;-63
2022/06/28 11:30:17;;;;;;;4.57;4.10;;;;;;;29.32;50.77;95042.50;5035612;28;20214;-63
2022/06/28 11:32:45;;;;;;;8.60;4.47;;;;;;;29.14;53.11;94979.00;5035384;28;20178;-62
2022/06/28 11:35:15;;;;;;;5.32;3.80;;;;;;;28.72;52.28;95017.78;5035436;28;20194;-63
2022/06/28 11:37:51;;;;;;;4.28;3.72;;;;;;;29.20;51.52;95047.00;5034357;28;20178;-63
2022/06/28 11:40:19;;;;;;;5.75;4.10;;;;;;;29.43;51.69;95015.41;5049984;22;20221;-64
2022/06/28 11:42:46;;;;;;;6.50;3.67;;;;;;;29.24;52.53;95011.44;5055123;28;20187;-62